Time;durP1;ratioP1;P1;durP2;ratioP2;P2;SDS_P1;SDS_P2;PMS_P1;PMS_P2;Temp;Humidity;BMP_temperature;BMP_pressure;BME280_temperature;BME280_humidity;BME280_pressure;Samples;Min_cycle;Max_cycle;Signal;HPM_P1;HPM_P2
2023/03/09 00:02:09;;;;;;;13.43;6.95;;;1.10;99.90;;;;;;5157158;27;20050;-79
2023/03/09 00:04:35;;;;;;;10.77;7.05;;;1.10;99.90;;;;;;5155320;27;20043;-81
2023/03/09 00:07:01;;;;;;;12.10;7.20;;;1.50;99.90;;;;;;5156734;27;20057;-82
2023/03/09 00:09:27;;;;;;;12.63;7.25;;;1.10;99.90;;;;;;5156395;27;20046;-79
2023/03/09 00:11:53;;;;;;;12.73;7.18;;;1.00;99.90;;;;;;5156153;27;20095;-82
2023/03/09 00:14:21;;;;;;;9.95;6.57;;;1.00;99.90;;;;;;5156985;27;20126;-81
2023/03/09 00:16:47;;;;;;;10.02;6.50;;;1.00;99.90;;;;;;5156255;27;20050;-82
2023/03/09 00:19:26;;;;;;;21.15;7.72;;;1.00;99.90;;;;;;5156803;27;20126;-82
2023/03/09 00:21:54;;;;;;;12.80;7.57;;;1.00;99.90;;;;;;5138774;27;20042;-80
2023/03/09 00:24:29;;;;;;;12.63;8.25;;;1.00;99.90;;;;;;5138195;27;20042;-82
2023/03/09 00:26:57;;;;;;;14.38;8.07;;;1.00;99.90;;;;;;5155444;27;20039;-81
2023/03/09 00:29:25;;;;;;;12.93;8.25;;;1.00;99.90;;;;;;5156639;27;20057;-83
2023/03/09 00:31:52;;;;;;;12.93;7.80;;;1.00;99.90;;;;;;5156626;27;20047;-80
2023/03/09 00:34:18;;;;;;;12.65;7.60;;;1.00;99.90;;;;;;5155426;27;20095;-80
2023/03/09 00:36:44;;;;;;;13.23;8.18;;;0.90;99.90;;;;;;5155527;27;20046;-82
2023/03/09 00:39:11;;;;;;;14.93;8.63;;;0.90;99.90;;;;;;5156643;27;20039;-78
2023/03/09 00:41:37;;;;;;;14.90;8.32;;;0.90;99.90;;;;;;5155448;27;20047;-79
2023/03/09 00:44:04;;;;;;;13.13;8.23;;;0.90;99.90;;;;;;5157018;27;20394;-82
2023/03/09 00:46:31;;;;;;;13.68;8.70;;;0.80;99.90;;;;;;5155585;27;20432;-82
2023/03/09 00:48:57;;;;;;;15.18;8.13;;;0.90;99.90;;;;;;5156760;27;20058;-82
2023/03/09 00:51:23;;;;;;;13.05;8.15;;;0.80;99.90;;;;;;5154797;27;20521;-80
2023/03/09 00:53:49;;;;;;;18.08;9.43;;;0.80;99.90;;;;;;5155032;27;20049;-81
2023/03/09 00:56:18;;;;;;;13.70;7.60;;;0.70;99.90;;;;;;5137815;27;20042;-80
2023/03/09 00:58:44;;;;;;;14.32;8.40;;;0.80;99.90;;;;;;5155177;27;20034;-79
2023/03/09 01:01:12;;;;;;;16.48;8.98;;;0.70;99.90;;;;;;5120694;27;20034;-82
2023/03/09 01:03:37;;;;;;;16.63;8.95;;;1.20;99.90;;;;;;5154846;27;20039;-82
2023/03/09 01:06:05;;;;;;;16.48;8.20;;;0.70;99.90;;;;;;5154816;27;20039;-82
2023/03/09 01:08:31;;;;;;;15.40;8.75;;;0.70;99.90;;;;;;5154948;27;20474;-83
2023/03/09 01:10:57;;;;;;;17.27;9.10;;;0.70;99.90;;;;;;5155142;27;20054;-83
2023/03/09 01:13:23;;;;;;;14.43;8.20;;;0.70;99.90;;;;;;5155851;27;20410;-81
2023/03/09 01:15:48;;;;;;;15.57;8.77;;;0.70;99.90;;;;;;5154716;27;20485;-80
2023/03/09 01:18:14;;;;;;;15.38;7.90;;;1.40;99.90;;;;;;5155490;27;20043;-81
2023/03/09 01:20:39;;;;;;;13.05;7.80;;;0.70;99.90;;;;;;5137290;27;20041;-79
2023/03/09 01:23:06;;;;;;;13.10;7.82;;;0.70;99.90;;;;;;5154501;27;20087;-83
2023/03/09 01:25:31;;;;;;;13.80;7.97;;;2.00;99.90;;;;;;5155571;27;20103;-80
2023/03/09 01:27:57;;;;;;;13.02;7.65;;;0.60;99.90;;;;;;5154709;27;20042;-83
2023/03/09 01:30:23;;;;;;;14.68;7.68;;;0.60;99.90;;;;;;5154763;27;20118;-80
2023/03/09 01:32:48;;;;;;;15.00;7.95;;;0.60;99.90;;;;;;5155428;27;20057;-80
2023/03/09 01:35:14;;;;;;;13.52;7.75;;;0.60;99.90;;;;;;5137590;27;20125;-83
2023/03/09 01:37:40;;;;;;;18.85;8.48;;;0.60;99.90;;;;;;5155605;27;20042;-81
2023/03/09 01:40:06;;;;;;;13.45;7.63;;;0.60;99.90;;;;;;5155499;27;20049;-82
2023/03/09 01:42:35;;;;;;;14.60;8.02;;;0.60;99.90;;;;;;5137069;27;20082;-80
2023/03/09 01:45:17;;;;;;;15.27;8.02;;;1.00;99.90;;;;;;5154623;27;20099;-82
2023/03/09 01:47:44;;;;;;;15.43;8.77;;;0.60;99.90;;;;;;5155050;27;20478;-82
2023/03/09 01:50:10;;;;;;;15.82;9.88;;;0.60;99.90;;;;;;5153912;27;20082;-84
2023/03/09 01:52:36;;;;;;;15.32;8.43;;;0.50;99.90;;;;;;5155314;27;20405;-82
2023/03/09 01:55:15;;;;;;;14.83;8.67;;;1.30;99.90;;;;;;5155377;27;20051;-83
2023/03/09 01:57:49;;;;;;;17.17;8.80;;;0.50;99.90;;;;;;5154097;27;20039;-80
2023/03/09 02:00:19;;;;;;;16.45;9.10;;;0.50;99.90;;;;;;5138263;27;20409;-80
2023/03/09 02:03:10;;;;;;;15.90;9.52;;;0.50;99.90;;;;;;5154412;27;20062;-78
2023/03/09 02:05:45;;;;;;;14.35;8.68;;;0.50;99.90;;;;;;5153599;27;20098;-83
2023/03/09 02:08:12;;;;;;;19.90;8.57;;;0.50;99.90;;;;;;5137212;27;20397;-80
2023/03/09 02:10:43;;;;;;;14.70;8.93;;;0.50;99.90;;;;;;5155183;27;20219;-80
2023/03/09 02:13:14;;;;;;;14.45;8.23;;;0.50;99.90;;;;;;5155380;27;20047;-81
2023/03/09 02:15:41;;;;;;;14.80;8.05;;;0.40;99.90;;;;;;5155538;27;20082;-80
2023/03/09 02:18:07;;;;;;;15.50;8.48;;;0.40;99.90;;;;;;5155138;27;20042;-82
2023/03/09 02:21:00;;;;;;;15.33;8.60;;;0.40;99.90;;;;;;5153946;27;20042;-80
2023/03/09 02:23:34;;;;;;;15.30;8.50;;;0.40;99.90;;;;;;5155017;27;20095;-82
2023/03/09 02:26:14;;;;;;;14.98;7.72;;;0.40;99.90;;;;;;5154967;27;20046;-81
2023/03/09 02:28:40;;;;;;;14.35;7.95;;;0.40;99.90;;;;;;5155536;27;20086;-84
2023/03/09 02:31:07;;;;;;;15.80;8.40;;;0.40;99.90;;;;;;5158340;27;20034;-81
2023/03/09 02:33:33;;;;;;;14.68;8.10;;;0.40;99.90;;;;;;5158833;27;20039;-84
2023/03/09 02:36:00;;;;;;;14.73;8.05;;;0.40;99.90;;;;;;5158565;27;20046;-80
2023/03/09 02:38:26;;;;;;;;;;;0.40;99.90;;;;;;5159237;27;20452;-83
2023/03/09 02:40:54;;;;;;;14.80;8.82;;;0.40;99.90;;;;;;5157606;27;19970;-82
2023/03/09 02:43:24;;;;;;;11.52;6.88;;;1.10;99.90;;;;;;5157479;27;20500;-80
2023/03/09 02:45:50;;;;;;;16.30;8.52;;;0.70;99.90;;;;;;5140575;27;20034;-83
2023/03/09 02:48:16;;;;;;;14.80;8.65;;;0.40;99.90;;;;;;5158701;27;20046;-80
2023/03/09 02:50:43;;;;;;;13.52;8.57;;;0.50;99.90;;;;;;5157299;27;20492;-82
2023/03/09 02:53:09;;;;;;;;;;;0.60;99.90;;;;;;5158931;27;20045;-82
2023/03/09 02:55:35;;;;;;;13.75;7.95;;;0.50;99.90;;;;;;5158559;27;19976;-81
2023/03/09 02:58:01;;;;;;;12.80;6.43;;;0.50;99.90;;;;;;5158252;27;20446;-83
2023/03/09 03:00:27;;;;;;;14.48;8.80;;;0.50;99.90;;;;;;5157279;27;20129;-81
2023/03/09 03:02:52;;;;;;;16.17;8.50;;;0.50;99.90;;;;;;5157309;27;20039;-80
2023/03/09 03:05:18;;;;;;;17.00;8.73;;;0.90;99.90;;;;;;5157333;27;20121;-80
2023/03/09 03:07:44;;;;;;;19.80;8.73;;;0.50;99.90;;;;;;5158237;27;20046;-83
2023/03/09 03:10:10;;;;;;;15.60;9.00;;;0.50;99.90;;;;;;5157139;27;20086;-83
2023/03/09 03:12:36;;;;;;;16.20;9.07;;;0.60;99.90;;;;;;5140629;27;20038;-80
2023/03/09 03:15:04;;;;;;;15.55;8.60;;;0.50;99.90;;;;;;5158176;27;20557;-82
2023/03/09 03:17:29;;;;;;;15.52;9.10;;;0.60;99.90;;;;;;5158288;27;20435;-80
2023/03/09 03:19:55;;;;;;;17.17;9.18;;;0.50;99.90;;;;;;5157147;27;20038;-80
2023/03/09 03:22:21;;;;;;;17.05;9.55;;;0.50;99.90;;;;;;5157047;27;20094;-81
2023/03/09 03:24:46;;;;;;;17.20;9.20;;;1.00;99.90;;;;;;5156517;27;20042;-82
2023/03/09 03:27:12;;;;;;;16.85;8.90;;;0.60;99.90;;;;;;5157910;27;20046;-83
2023/03/09 03:29:37;;;;;;;18.65;9.27;;;0.60;99.90;;;;;;5156859;27;20149;-82
2023/03/09 03:32:03;;;;;;;16.85;9.27;;;0.60;99.90;;;;;;5156893;27;20130;-83
2023/03/09 03:34:29;;;;;;;16.95;9.68;;;0.60;99.90;;;;;;5158007;27;20129;-81
2023/03/09 03:36:55;;;;;;;18.38;9.90;;;0.60;99.90;;;;;;5156939;27;20129;-80
2023/03/09 03:39:21;;;;;;;18.38;10.32;;;0.60;99.90;;;;;;5156909;27;20038;-84
2023/03/09 03:41:46;;;;;;;19.27;9.95;;;0.70;99.90;;;;;;5157112;27;20047;-83
2023/03/09 03:44:12;;;;;;;18.08;10.55;;;0.60;99.90;;;;;;5156649;27;20049;-84
2023/03/09 03:46:38;;;;;;;18.95;10.18;;;0.60;99.90;;;;;;5139573;27;20106;-85
2023/03/09 03:49:03;;;;;;;19.80;10.52;;;0.70;99.90;;;;;;5157750;27;20082;-85
2023/03/09 03:51:29;;;;;;;17.52;10.25;;;0.60;99.90;;;;;;5138735;27;20552;-83
2023/03/09 03:53:54;;;;;;;19.38;11.48;;;1.20;99.90;;;;;;5157404;27;20110;-83
2023/03/09 03:56:20;;;;;;;20.77;11.25;;;0.60;99.90;;;;;;5156118;27;20039;-81
2023/03/09 03:58:46;;;;;;;20.58;11.50;;;0.70;99.90;;;;;;5139131;27;20055;-79
2023/03/09 04:01:12;;;;;;;22.05;11.30;;;0.60;99.90;;;;;;5157236;27;20050;-80
2023/03/09 04:03:37;;;;;;;18.77;10.18;;;0.60;99.90;;;;;;5157228;27;20047;-80
2023/03/09 04:06:03;;;;;;;19.80;10.52;;;0.60;99.90;;;;;;5155954;27;20129;-81
2023/03/09 04:08:30;;;;;;;19.70;10.18;;;0.60;99.90;;;;;;5155794;27;20043;-80
2023/03/09 04:10:56;;;;;;;22.58;11.23;;;0.70;99.90;;;;;;5157089;27;20176;-80
2023/03/09 04:13:22;;;;;;;19.88;10.50;;;0.70;99.90;;;;;;5157399;27;20125;-83
2023/03/09 04:15:48;;;;;;;18.75;10.50;;;0.60;99.90;;;;;;5157054;27;20035;-82
2023/03/09 04:18:14;;;;;;;20.00;10.65;;;1.50;99.90;;;;;;5156089;27;20042;-82
2023/03/09 04:20:41;;;;;;;23.23;10.90;;;0.70;99.90;;;;;;5121434;27;20175;-82
2023/03/09 04:23:08;;;;;;;19.70;10.00;;;0.70;99.90;;;;;;5156639;27;20039;-82
2023/03/09 04:25:34;;;;;;;20.27;10.93;;;0.70;99.90;;;;;;5155646;27;20042;-81
2023/03/09 04:27:59;;;;;;;22.80;10.88;;;0.50;99.90;;;;;;5155841;27;20035;-82
2023/03/09 04:30:25;;;;;;;17.42;10.45;;;0.60;99.90;;;;;;5156662;27;20035;-82
2023/03/09 04:32:51;;;;;;;17.48;9.95;;;0.60;99.90;;;;;;5155647;27;20042;-84
2023/03/09 04:35:17;;;;;;;17.58;9.65;;;0.30;99.90;;;;;;5155203;27;20056;-80
2023/03/09 04:37:45;;;;;;;19.85;9.75;;;0.70;99.90;;;;;;5155365;27;20129;-82
2023/03/09 04:40:12;;;;;;;17.83;10.43;;;0.50;99.90;;;;;;5156401;27;20038;-82
2023/03/09 04:42:38;;;;;;;18.50;9.77;;;0.70;99.90;;;;;;5138321;27;20047;-84
2023/03/09 04:45:04;;;;;;;21.55;10.68;;;0.70;99.90;;;;;;5155115;27;20041;-82
2023/03/09 04:47:30;;;;;;;19.80;10.43;;;0.70;99.90;;;;;;5156409;27;20423;-80
2023/03/09 04:49:56;;;;;;;15.30;9.82;;;0.70;99.90;;;;;;5156109;27;20117;-80
2023/03/09 04:52:21;;;;;;;15.68;9.00;;;0.70;99.90;;;;;;5154550;27;20063;-82
2023/03/09 04:54:48;;;;;;;15.68;8.82;;;0.80;99.90;;;;;;5154744;27;20053;-83
2023/03/09 04:57:14;;;;;;;20.40;10.15;;;0.70;99.90;;;;;;5155842;27;20126;-81
2023/03/09 04:59:39;;;;;;;16.98;9.23;;;1.10;99.90;;;;;;5156272;27;20043;-82
2023/03/09 05:02:05;;;;;;;18.20;10.57;;;0.90;99.90;;;;;;5154983;27;20497;-81
2023/03/09 05:04:31;;;;;;;17.90;9.93;;;1.80;99.90;;;;;;5137500;27;20489;-83
2023/03/09 05:06:57;;;;;;;14.38;8.80;;;0.60;99.90;;;;;;5155648;27;20490;-83
2023/03/09 05:09:22;;;;;;;18.92;9.85;;;1.00;99.90;;;;;;5155928;27;20082;-83
2023/03/09 05:11:51;;;;;;;20.50;10.13;;;0.60;99.90;;;;;;5155150;27;20046;-82
2023/03/09 05:14:18;;;;;;;15.98;9.10;;;0.60;99.90;;;;;;5155050;27;20058;-81
2023/03/09 05:16:44;;;;;;;18.98;10.02;;;0.60;99.90;;;;;;5155821;27;20042;-81
2023/03/09 05:19:10;;;;;;;15.02;9.52;;;0.70;99.90;;;;;;5154838;27;20045;-82
2023/03/09 05:21:36;;;;;;;16.48;9.20;;;1.10;99.90;;;;;;5155077;27;20043;-84
2023/03/09 05:24:03;;;;;;;17.27;8.67;;;0.50;99.90;;;;;;5137451;27;20066;-82
2023/03/09 05:26:28;;;;;;;18.25;9.70;;;0.60;99.90;;;;;;5155710;27;20685;-83
2023/03/09 05:28:54;;;;;;;15.55;8.93;;;0.60;99.90;;;;;;5120073;27;20091;-82
2023/03/09 05:31:20;;;;;;;18.58;9.30;;;0.60;99.90;;;;;;5120380;27;20050;-84
2023/03/09 05:33:46;;;;;;;16.85;9.10;;;3.20;99.90;;;;;;5155672;27;20038;-81
2023/03/09 05:36:23;;;;;;;18.95;10.25;;;0.60;99.90;;;;;;5120298;27;20077;-83
2023/03/09 05:38:50;;;;;;;16.77;9.63;;;0.60;99.90;;;;;;5155710;27;20046;-82
2023/03/09 05:41:16;;;;;;;18.27;9.57;;;0.60;99.90;;;;;;5155496;27;20039;-82
2023/03/09 05:43:42;;;;;;;19.88;10.40;;;0.60;99.90;;;;;;5155307;27;20038;-82
2023/03/09 05:46:13;;;;;;;18.52;9.90;;;0.60;99.90;;;;;;5155554;27;20053;-83
2023/03/09 05:48:39;;;;;;;20.08;10.95;;;0.50;99.90;;;;;;5155582;27;20428;-81
2023/03/09 05:51:05;;;;;;;20.33;10.43;;;0.50;99.90;;;;;;5155194;27;20077;-80
2023/03/09 05:53:32;;;;;;;19.30;11.00;;;0.50;99.90;;;;;;5120203;27;20079;-82
2023/03/09 05:55:58;;;;;;;18.15;10.63;;;1.50;99.90;;;;;;5137337;27;20084;-81
2023/03/09 05:58:24;;;;;;;17.85;9.65;;;0.50;99.90;;;;;;5155347;27;20035;-81
2023/03/09 06:00:52;;;;;;;17.70;9.87;;;0.50;99.90;;;;;;5155363;27;20046;-82
2023/03/09 06:03:18;;;;;;;21.08;11.10;;;0.60;99.90;;;;;;5157404;27;20038;-81
2023/03/09 06:05:44;;;;;;;20.75;11.07;;;0.60;99.90;;;;;;5159493;27;20050;-84
2023/03/09 06:08:10;;;;;;;19.65;11.27;;;0.60;99.90;;;;;;5141240;27;20473;-80
2023/03/09 06:10:36;;;;;;;19.58;10.45;;;0.70;99.90;;;;;;5159832;27;20091;-81
2023/03/09 06:13:02;;;;;;;21.77;11.50;;;0.60;99.90;;;;;;5141140;27;20035;-82
2023/03/09 06:15:28;;;;;;;22.75;12.05;;;0.60;99.90;;;;;;5141074;27;20106;-79
2023/03/09 06:17:54;;;;;;;20.23;10.85;;;0.60;99.90;;;;;;5159270;27;20050;-79
2023/03/09 06:20:19;;;;;;;22.15;11.43;;;0.60;99.90;;;;;;5159299;27;20043;-80
2023/03/09 06:22:45;;;;;;;23.65;12.68;;;0.70;99.90;;;;;;5120128;27;20053;-79
2023/03/09 06:25:11;;;;;;;25.50;12.18;;;0.70;99.90;;;;;;5120716;27;20360;-80
2023/03/09 06:27:37;;;;;;;19.80;11.57;;;1.40;99.90;;;;;;5120262;27;20096;-78
2023/03/09 06:30:03;;;;;;;23.70;11.93;;;0.70;99.90;;;;;;5138503;27;20047;-84
2023/03/09 06:32:32;;;;;;;24.25;10.82;;;0.70;99.90;;;;;;5119613;27;20035;-84
2023/03/09 06:34:58;;;;;;;24.00;12.50;;;0.70;99.90;;;;;;5138245;27;20407;-82
2023/03/09 06:37:24;;;;;;;19.63;10.70;;;0.70;99.90;;;;;;5119913;27;20039;-82
2023/03/09 06:39:50;;;;;;;24.10;11.80;;;0.70;99.90;;;;;;5120067;27;20035;-84
2023/03/09 06:42:16;;;;;;;20.30;11.68;;;0.80;99.90;;;;;;5103266;27;20424;-82
2023/03/09 06:44:42;;;;;;;24.73;11.82;;;0.80;99.90;;;;;;5119779;27;20056;-84
2023/03/09 06:47:08;;;;;;;24.00;12.32;;;0.80;99.90;;;;;;5119672;27;20059;-83
2023/03/09 06:49:34;;;;;;;23.52;11.82;;;0.80;99.90;;;;;;5119545;27;20444;-86
2023/03/09 06:52:00;;;;;;;21.15;11.65;;;0.90;99.90;;;;;;5119713;27;20051;-84
2023/03/09 06:54:26;;;;;;;20.20;10.45;;;0.90;99.90;;;;;;5137907;27;20371;-85
2023/03/09 06:56:52;;;;;;;22.35;11.05;;;0.90;99.90;;;;;;5119708;27;20398;-82
2023/03/09 06:59:18;;;;;;;20.38;11.20;;;0.90;99.90;;;;;;5138788;27;20054;-82
2023/03/09 07:01:43;;;;;;;21.20;12.18;;;0.90;99.90;;;;;;5138012;27;20050;-83
2023/03/09 07:04:09;;;;;;;21.38;11.73;;;1.70;99.90;;;;;;5119825;27;20045;-87
2023/03/09 07:06:40;;;;;;;21.48;11.60;;;1.50;99.90;;;;;;5137777;27;20046;-81
2023/03/09 07:09:05;;;;;;;22.80;11.52;;;1.00;99.90;;;;;;5120941;27;20394;-84
2023/03/09 07:11:31;;;;;;;20.08;11.55;;;1.00;99.90;;;;;;5139134;27;20118;-83
2023/03/09 07:13:56;;;;;;;24.50;11.70;;;3.90;99.90;;;;;;5103102;28;20404;-86
2023/03/09 07:16:22;;;;;;;20.95;10.90;;;2.80;99.90;;;;;;5119703;27;20043;-86
2023/03/09 07:18:49;;;;;;;23.17;11.70;;;1.10;99.90;;;;;;5137226;27;20450;-83
2023/03/09 07:21:14;;;;;;;23.30;11.43;;;1.10;99.90;;;;;;5102216;27;20043;-79
2023/03/09 07:23:40;;;;;;;21.77;11.52;;;1.20;99.90;;;;;;5137196;27;20045;-82
2023/03/09 07:26:07;;;;;;;23.33;11.30;;;1.30;99.90;;;;;;5119120;27;20471;-80
2023/03/09 07:28:33;;;;;;;22.35;12.52;;;1.30;99.90;;;;;;5118967;27;20039;-80
2023/03/09 07:31:05;;;;;;;20.33;11.23;;;1.30;99.90;;;;;;5137280;27;20050;-80
2023/03/09 07:33:30;;;;;;;20.77;11.57;;;0.70;99.90;;;;;;5137176;27;20144;-78
2023/03/09 07:35:56;;;;;;;23.85;12.90;;;1.40;99.90;;;;;;5137070;27;20047;-78
2023/03/09 07:38:21;;;;;;;21.85;12.13;;;2.60;99.90;;;;;;5137310;27;20393;-79
2023/03/09 07:40:47;;;;;;;21.25;11.35;;;1.40;99.90;;;;;;5137292;27;20050;-77
2023/03/09 07:43:12;;;;;;;24.10;12.32;;;1.40;99.90;;;;;;5136725;27;20078;-79
2023/03/09 07:45:39;;;;;;;23.42;12.27;;;1.50;99.90;;;;;;5136949;27;20394;-79
2023/03/09 07:48:05;;;;;;;25.42;12.05;;;1.50;99.90;;;;;;5136694;27;20126;-81
2023/03/09 07:50:30;;;;;;;22.92;12.13;;;1.50;99.90;;;;;;5136953;27;20615;-80
2023/03/09 07:52:57;;;;;;;24.20;12.50;;;1.50;99.90;;;;;;5136730;27;20057;-77
2023/03/09 07:55:23;;;;;;;23.17;12.50;;;1.60;99.90;;;;;;5136694;27;20134;-82
2023/03/09 07:57:49;;;;;;;19.90;10.85;;;1.60;99.90;;;;;;5118377;27;20088;-80
2023/03/09 08:00:20;;;;;;;25.67;12.38;;;1.90;99.90;;;;;;5136636;27;20047;-78
2023/03/09 08:02:46;;;;;;;22.60;11.60;;;1.70;99.90;;;;;;5136594;27;20093;-81
2023/03/09 08:05:12;;;;;;;25.10;12.55;;;1.70;99.90;;;;;;5136357;27;20054;-81
2023/03/09 08:07:42;;;;;;;24.90;11.90;;;1.70;99.90;;;;;;5118084;27;20130;-79
2023/03/09 08:10:08;;;;;;;25.20;12.15;;;1.80;99.90;;;;;;5136335;27;20079;-77
2023/03/09 08:12:34;;;;;;;21.38;11.30;;;1.80;99.90;;;;;;5146731;27;20039;-81
2023/03/09 08:14:59;;;;;;;25.02;13.25;;;1.90;99.90;;;;;;5124289;27;20103;-78
2023/03/09 08:17:25;;;;;;;22.20;11.90;;;1.90;99.90;;;;;;5121130;27;20042;-83
2023/03/09 08:19:51;;;;;;;19.33;10.98;;;1.90;99.90;;;;;;5137850;27;20056;-84
2023/03/09 08:22:17;;;;;;;21.25;11.57;;;2.00;99.90;;;;;;5156688;27;20042;-84
2023/03/09 08:24:42;;;;;;;20.13;11.27;;;2.00;99.90;;;;;;5137691;27;20038;-84
2023/03/09 08:27:09;;;;;;;21.33;10.60;;;2.00;99.90;;;;;;5137096;27;20061;-81
2023/03/09 08:29:35;;;;;;;26.05;13.32;;;2.00;99.90;;;;;;5156242;27;20047;-83
2023/03/09 08:32:05;;;;;;;22.15;11.80;;;2.00;99.90;;;;;;5155846;27;20046;-80
2023/03/09 08:34:30;;;;;;;21.17;12.00;;;2.10;99.90;;;;;;5156307;27;20043;-84
2023/03/09 08:36:57;;;;;;;22.48;12.23;;;2.80;99.90;;;;;;5138108;27;20061;-83
2023/03/09 08:39:22;;;;;;;22.23;12.48;;;2.20;99.90;;;;;;5155700;27;20475;-79
2023/03/09 08:41:48;;;;;;;22.42;12.13;;;2.50;99.90;;;;;;5155738;27;20046;-82
2023/03/09 08:44:13;;;;;;;23.58;12.15;;;2.20;99.90;;;;;;5137574;27;20035;-79
2023/03/09 08:46:39;;;;;;;23.83;12.88;;;2.30;99.90;;;;;;5155859;27;20039;-80
2023/03/09 08:49:05;;;;;;;19.90;11.13;;;2.30;99.90;;;;;;5137770;27;20034;-80
2023/03/09 08:51:30;;;;;;;23.98;12.95;;;2.30;99.90;;;;;;5155902;27;20103;-82
2023/03/09 08:53:56;;;;;;;21.85;12.43;;;2.30;99.90;;;;;;5155888;27;20053;-81
2023/03/09 08:56:21;;;;;;;20.85;12.10;;;2.30;99.90;;;;;;5156110;27;20081;-80
2023/03/09 08:58:47;;;;;;;21.83;11.68;;;2.30;99.90;;;;;;5155793;27;20049;-81
2023/03/09 09:01:13;;;;;;;24.13;12.23;;;2.30;99.90;;;;;;5136449;27;20046;-80
2023/03/09 09:03:38;;;;;;;21.63;11.45;;;2.30;99.90;;;;;;5137465;27;20358;-82
2023/03/09 09:06:10;;;;;;;24.35;12.95;;;2.30;99.90;;;;;;5137274;27;20046;-80
2023/03/09 09:08:36;;;;;;;21.60;12.43;;;2.30;99.90;;;;;;5137196;27;20042;-80
2023/03/09 09:11:10;;;;;;;22.98;12.35;;;2.40;99.90;;;;;;5155147;27;20039;-82
2023/03/09 09:13:37;;;;;;;22.88;12.70;;;2.40;99.90;;;;;;5155513;27;20081;-79
2023/03/09 09:16:05;;;;;;;23.83;12.63;;;2.40;99.90;;;;;;5155606;27;20532;-81
2023/03/09 09:18:35;;;;;;;23.15;12.55;;;2.50;99.90;;;;;;5155328;27;20043;-84
2023/03/09 09:21:07;;;;;;;22.17;12.85;;;2.50;99.90;;;;;;5136512;27;20069;-85
2023/03/09 09:23:40;;;;;;;23.30;12.88;;;2.30;99.90;;;;;;5155548;27;20039;-84
2023/03/09 09:26:06;;;;;;;21.70;12.18;;;2.60;99.90;;;;;;5155562;27;20121;-81
2023/03/09 09:28:32;;;;;;;22.58;11.98;;;2.60;99.90;;;;;;5155382;27;20046;-84
2023/03/09 09:31:00;;;;;;;21.20;12.57;;;2.70;99.90;;;;;;5136616;27;20095;-83
2023/03/09 09:33:31;;;;;;;15.43;9.82;;;2.70;99.90;;;;;;5137015;27;20443;-84
2023/03/09 09:35:59;;;;;;;19.13;11.15;;;2.80;99.90;;;;;;5154974;27;20038;-80
2023/03/09 09:38:26;;;;;;;19.58;11.00;;;2.80;99.90;;;;;;5154824;27;20121;-82
2023/03/09 09:40:54;;;;;;;21.55;11.82;;;2.80;99.90;;;;;;5154463;27;20417;-81
2023/03/09 09:43:22;;;;;;;24.90;11.95;;;2.90;99.90;;;;;;5136824;27;20424;-85
2023/03/09 09:45:49;;;;;;;22.45;12.85;;;2.90;99.90;;;;;;5154676;27;20043;-84
2023/03/09 09:48:17;;;;;;;21.40;12.55;;;3.00;99.90;;;;;;5136342;27;20039;-83
2023/03/09 09:50:52;;;;;;;21.27;11.45;;;2.90;99.90;;;;;;5118189;27;20058;-77
2023/03/09 09:53:45;;;;;;;19.33;11.80;;;2.90;99.90;;;;;;5155373;27;20055;-80
2023/03/09 09:56:14;;;;;;;23.27;12.73;;;2.90;99.90;;;;;;5156249;27;20046;-79
2023/03/09 09:58:52;;;;;;;22.10;13.13;;;2.90;99.90;;;;;;5154527;27;20405;-79
2023/03/09 10:01:27;;;;;;;23.30;12.73;;;3.00;99.90;;;;;;5154800;27;20038;-79
2023/03/09 10:03:57;;;;;;;20.88;12.20;;;3.00;99.90;;;;;;5154956;27;20038;-79
2023/03/09 10:06:24;;;;;;;22.17;11.68;;;3.00;99.90;;;;;;5154928;27;20402;-81
2023/03/09 10:09:00;;;;;;;23.85;12.32;;;3.20;99.90;;;;;;5154996;27;20099;-79
2023/03/09 10:11:44;;;;;;;21.05;12.23;;;3.10;99.90;;;;;;5155068;27;20078;-81
2023/03/09 10:14:18;;;;;;;21.83;12.10;;;3.10;99.90;;;;;;5154612;27;20343;-79
2023/03/09 10:16:53;;;;;;;18.60;11.48;;;3.10;99.90;;;;;;5155208;27;20133;-79
2023/03/09 10:19:28;;;;;;;21.50;12.30;;;3.10;99.90;;;;;;5154700;27;20490;-81
2023/03/09 10:21:59;;;;;;;23.23;12.05;;;3.10;99.90;;;;;;5136697;27;20039;-78
2023/03/09 10:24:26;;;;;;;25.88;12.30;;;3.10;99.90;;;;;;5155001;27;20363;-85
2023/03/09 10:26:58;;;;;;;;;;;3.10;99.90;;;;;;5119520;27;20469;-80
2023/03/09 10:29:39;;;;;;;21.88;13.02;;;3.10;99.90;;;;;;5154827;27;19980;-80
2023/03/09 10:32:39;;;;;;;21.40;11.90;;;3.10;99.90;;;;;;5119610;27;20054;-80
2023/03/09 10:35:34;;;;;;;20.15;12.10;;;3.10;99.90;;;;;;5136509;27;20059;-88
2023/03/09 10:37:59;;;;;;;21.38;12.70;;;3.20;99.90;;;;;;5074388;27;20059;-86
2023/03/09 10:40:32;;;;;;;20.33;12.15;;;3.80;99.90;;;;;;5119399;27;20051;-86
2023/03/09 10:43:16;;;;;;;;;;;;;;;;;;;;;
2023/03/09 10:45:53;;;;;;;21.27;12.15;;;;;;;;;;5156306;27;20062;-80
2023/03/09 10:49:04;;;;;;;19.03;10.80;;;3.10;99.90;;;;;;5126369;27;20038;-87
2023/03/09 10:52:05;;;;;;;;;;;;;;;;;;;;;
2023/03/09 10:54:57;;;;;;;20.00;12.10;;;3.20;99.90;;;;;;5164578;27;20053;-83
2023/03/09 10:57:25;;;;;;;20.67;11.70;;;3.20;99.90;;;;;;5123068;27;20054;-84
2023/03/09 11:00:05;;;;;;;18.33;11.38;;;3.30;99.90;;;;;;5123033;27;20038;-87
2023/03/09 11:02:35;;;;;;;22.85;12.38;;;3.30;99.90;;;;;;5158142;27;20118;-83
2023/03/09 11:05:18;;;;;;;23.58;12.40;;;3.40;99.90;;;;;;5158330;27;20042;-80
2023/03/09 11:07:53;;;;;;;21.10;12.18;;;3.40;99.90;;;;;;5139811;27;20074;-85
2023/03/09 11:10:27;;;;;;;20.45;12.13;;;3.40;99.90;;;;;;5123260;27;20042;-84
2023/03/09 11:12:53;;;;;;;19.15;11.70;;;3.50;99.90;;;;;;5122567;27;20045;-84
2023/03/09 11:15:28;;;;;;;21.13;12.20;;;3.40;99.90;;;;;;5158699;27;20042;-85
2023/03/09 11:17:58;;;;;;;24.38;12.23;;;3.40;99.90;;;;;;5123704;27;20439;-87
2023/03/09 11:20:29;;;;;;;19.65;11.40;;;3.40;99.90;;;;;;5122740;27;20474;-86
2023/03/09 11:23:13;;;;;;;22.52;12.73;;;3.50;99.90;;;;;;5122245;27;20051;-78
2023/03/09 11:25:51;;;;;;;20.40;11.18;;;3.50;99.90;;;;;;5139379;27;20077;-83
2023/03/09 11:28:59;;;;;;;20.42;11.80;;;3.50;99.90;;;;;;5157911;27;20049;-83
2023/03/09 11:31:40;;;;;;;23.60;12.98;;;3.60;99.90;;;;;;5126294;27;20051;-81
2023/03/09 11:34:30;;;;;;;17.88;11.10;;;3.60;99.90;;;;;;5159747;27;20043;-84
2023/03/09 11:37:13;;;;;;;20.75;11.43;;;3.70;99.90;;;;;;5122722;27;20058;-83
2023/03/09 11:39:57;;;;;;;18.88;11.55;;;3.70;99.90;;;;;;5139602;27;20088;-84
2023/03/09 11:42:34;;;;;;;21.85;12.30;;;3.70;99.90;;;;;;5158095;27;20043;-83
2023/03/09 11:45:01;;;;;;;19.70;11.30;;;3.70;99.90;;;;;;5122379;27;20042;-81
2023/03/09 11:47:43;;;;;;;22.00;12.35;;;3.70;99.90;;;;;;5139391;27;20431;-81
2023/03/09 11:50:15;;;;;;;22.20;11.95;;;3.70;99.90;;;;;;5157534;27;20065;-79
2023/03/09 11:53:00;;;;;;;22.77;11.90;;;3.70;99.90;;;;;;5157486;27;20474;-81
2023/03/09 11:55:34;;;;;;;20.63;11.82;;;3.70;99.90;;;;;;5157746;27;20042;-80
2023/03/09 11:58:04;;;;;;;22.40;12.88;;;3.70;99.90;;;;;;5157612;27;20047;-80
2023/03/09 12:00:33;;;;;;;19.63;11.32;;;3.70;99.90;;;;;;5157316;27;20034;-79
2023/03/09 12:03:05;;;;;;;21.40;11.70;;;3.70;99.90;;;;;;5138948;27;20474;-79
2023/03/09 12:05:37;;;;;;;22.42;12.05;;;4.00;99.90;;;;;;5122305;27;20050;-80
2023/03/09 12:08:11;;;;;;;23.40;13.10;;;3.80;99.90;;;;;;5138927;27;20042;-80
2023/03/09 12:10:45;;;;;;;21.35;12.23;;;3.80;99.90;;;;;;5157628;27;20142;-80
2023/03/09 12:13:30;;;;;;;20.60;12.32;;;3.80;99.90;;;;;;5139266;27;20179;-79
2023/03/09 12:16:10;;;;;;;20.23;11.63;;;3.80;99.90;;;;;;5157084;27;20126;-79
2023/03/09 12:18:40;;;;;;;22.05;12.25;;;3.80;99.90;;;;;;5157057;27;20039;-83
2023/03/09 12:21:09;;;;;;;20.40;11.52;;;3.70;99.90;;;;;;5156954;27;20050;-82
2023/03/09 12:23:34;;;;;;;22.55;12.60;;;3.80;99.90;;;;;;5156788;27;20038;-82
2023/03/09 12:26:18;;;;;;;20.58;12.35;;;3.80;99.90;;;;;;5156807;27;20046;-81
2023/03/09 12:29:01;;;;;;;20.95;12.05;;;3.80;99.90;;;;;;5138809;27;20513;-81
2023/03/09 12:31:33;;;;;;;20.75;12.48;;;3.80;99.90;;;;;;5156770;27;20035;-83
2023/03/09 12:33:59;;;;;;;21.02;12.02;;;3.80;99.90;;;;;;5156700;27;20049;-81
2023/03/09 12:36:27;;;;;;;20.92;11.40;;;3.90;99.90;;;;;;5138294;27;20046;-80
2023/03/09 12:39:24;;;;;;;20.67;11.20;;;3.90;99.90;;;;;;5121215;27;20378;-78
2023/03/09 12:42:09;;;;;;;19.25;11.02;;;3.90;99.90;;;;;;5156785;27;20062;-81
2023/03/09 12:44:43;;;;;;;18.75;11.45;;;3.90;99.90;;;;;;5156405;27;20129;-81
2023/03/09 12:47:36;;;;;;;22.27;11.63;;;3.90;99.90;;;;;;5156265;27;20517;-79
2023/03/09 12:50:06;;;;;;;19.55;10.95;;;4.00;99.90;;;;;;5156265;27;20100;-80
2023/03/09 12:52:41;;;;;;;19.23;10.63;;;4.00;99.90;;;;;;5121078;27;20051;-80
2023/03/09 12:55:17;;;;;;;19.15;11.73;;;3.90;99.90;;;;;;5120534;27;20086;-80